Time;durP1;ratioP1;P1;durP2;ratioP2;P2;SDS_P1;SDS_P2;PMS_P1;PMS_P2;Temp;Humidity;BMP_temperature;BMP_pressure;BME280_temperature;BME280_humidity;BME280_pressure;Samples;Min_cycle;Max_cycle;Signal;HPM_P1;HPM_P2
2021/05/01 00:01:21;;;;;;;31.15;23.13;;;6.80;94.90;;;;;;6129133;23;20211;-79
2021/05/01 00:03:47;;;;;;;33.60;25.00;;;6.80;94.70;;;;;;6129428;23;20181;-78
2021/05/01 00:06:14;;;;;;;28.90;22.58;;;6.80;94.70;;;;;;6127737;23;20208;-77
2021/05/01 00:08:41;;;;;;;33.33;23.98;;;6.80;95.00;;;;;;6128984;23;20221;-77
2021/05/01 00:11:07;;;;;;;36.22;25.63;;;6.90;95.20;;;;;;6138723;23;20211;-80
2021/05/01 00:13:34;;;;;;;33.72;24.45;;;7.00;95.10;;;;;;6149645;23;20185;-80
2021/05/01 00:16:03;;;;;;;35.60;23.02;;;6.90;94.80;;;;;;6147712;23;20180;-78
2021/05/01 00:18:30;;;;;;;30.35;22.83;;;6.90;94.70;;;;;;6145862;23;20199;-78
2021/05/01 00:20:56;;;;;;;35.45;25.00;;;6.90;94.60;;;;;;6137616;23;20279;-78
2021/05/01 00:23:23;;;;;;;34.13;24.33;;;6.90;94.40;;;;;;6132818;23;20227;-77
2021/05/01 00:25:50;;;;;;;31.60;23.75;;;6.90;94.20;;;;;;6126112;23;20252;-80
2021/05/01 00:28:17;;;;;;;35.95;26.65;;;6.90;94.10;;;;;;6126354;23;20195;-77
2021/05/01 00:30:43;;;;;;;33.58;23.30;;;6.70;94.00;;;;;;6125467;23;20471;-79
2021/05/01 00:33:10;;;;;;;29.48;23.00;;;6.60;94.00;;;;;;6126306;23;20219;-80
2021/05/01 00:35:37;;;;;;;32.65;22.83;;;6.60;94.00;;;;;;6125954;23;20689;-78
2021/05/01 00:38:03;;;;;;;30.63;23.48;;;6.50;94.00;;;;;;6124714;23;20200;-79
2021/05/01 00:40:30;;;;;;;37.17;26.02;;;6.50;94.20;;;;;;6125711;23;20255;-80
2021/05/01 00:42:58;;;;;;;39.65;24.55;;;6.50;94.50;;;;;;6126530;23;20212;-77
2021/05/01 00:45:25;;;;;;;38.25;24.20;;;6.40;94.60;;;;;;6126097;23;20185;-80
2021/05/01 00:47:51;;;;;;;33.50;23.10;;;6.30;94.70;;;;;;6126763;23;20183;-77
2021/05/01 00:50:17;;;;;;;34.97;24.58;;;6.30;95.10;;;;;;6126414;23;20284;-77
2021/05/01 00:52:44;;;;;;;34.97;24.02;;;6.20;95.10;;;;;;6127362;23;20286;-77
2021/05/01 00:55:11;;;;;;;32.20;22.95;;;6.20;95.40;;;;;;6128437;23;20184;-79
2021/05/01 00:57:38;;;;;;;37.28;23.40;;;6.20;95.60;;;;;;6128518;23;20184;-79
2021/05/01 01:00:12;;;;;;;35.50;23.50;;;6.10;95.60;;;;;;6129355;23;20201;-78
2021/05/01 01:02:38;;;;;;;33.58;24.35;;;6.10;96.10;;;;;;6130178;23;20173;-79
2021/05/01 01:05:06;;;;;;;35.83;25.10;;;6.10;96.30;;;;;;6132808;23;20187;-80
2021/05/01 01:07:32;;;;;;;36.45;24.55;;;6.10;96.80;;;;;;6132439;23;20445;-79
2021/05/01 01:09:58;;;;;;;33.38;22.83;;;6.10;97.30;;;;;;6132102;23;20211;-78
2021/05/01 01:12:25;;;;;;;34.15;24.20;;;6.10;97.30;;;;;;6133267;23;20304;-79
2021/05/01 01:14:51;;;;;;;31.95;22.65;;;6.10;97.30;;;;;;6133456;23;20185;-78
2021/05/01 01:17:18;;;;;;;33.97;22.10;;;6.00;96.90;;;;;;6141875;23;20204;-79
2021/05/01 01:19:45;;;;;;;34.88;23.40;;;6.00;97.20;;;;;;6149178;23;20196;-77
2021/05/01 01:22:14;;;;;;;36.15;23.67;;;5.90;97.20;;;;;;6148496;23;20184;-77
2021/05/01 01:24:40;;;;;;;33.38;24.00;;;5.90;97.30;;;;;;6132428;23;20236;-79
2021/05/01 01:27:08;;;;;;;34.22;24.20;;;5.80;97.20;;;;;;6128931;23;20185;-80
2021/05/01 01:29:37;;;;;;;31.48;22.63;;;5.80;97.30;;;;;;6129589;23;20176;-79
2021/05/01 01:32:05;;;;;;;38.28;25.02;;;5.80;97.30;;;;;;6129457;23;20237;-78
2021/05/01 01:34:32;;;;;;;37.55;23.65;;;5.80;97.90;;;;;;6128766;23;20504;-78
2021/05/01 01:36:58;;;;;;;36.00;25.40;;;5.80;98.40;;;;;;6131089;23;20235;-78
2021/05/01 01:39:27;;;;;;;36.55;25.00;;;5.80;98.60;;;;;;6136867;23;20172;-77
2021/05/01 01:41:53;;;;;;;37.70;25.63;;;5.90;98.90;;;;;;6138857;23;20578;-78
2021/05/01 01:44:20;;;;;;;43.97;26.30;;;5.80;98.70;;;;;;6141623;23;20192;-78
2021/05/01 01:46:46;;;;;;;35.85;24.80;;;5.80;98.90;;;;;;6139574;23;20251;-78
2021/05/01 01:49:13;;;;;;;38.50;26.83;;;5.80;99.00;;;;;;6142294;23;20185;-77
2021/05/01 01:51:39;;;;;;;35.28;24.60;;;5.70;99.20;;;;;;6140474;23;20196;-78
2021/05/01 01:54:06;;;;;;;33.47;25.02;;;5.80;99.50;;;;;;6139789;23;20191;-78
2021/05/01 01:56:37;;;;;;;36.03;23.70;;;5.70;99.40;;;;;;6136717;23;20650;-78
2021/05/01 01:59:04;;;;;;;38.58;25.02;;;5.70;99.50;;;;;;6137110;23;20169;-79
2021/05/01 02:01:30;;;;;;;41.75;26.08;;;5.70;99.80;;;;;;6137097;23;20201;-78
2021/05/01 02:03:56;;;;;;;36.90;23.50;;;5.60;99.90;;;;;;6136787;23;20468;-78
2021/05/01 02:06:23;;;;;;;35.70;24.45;;;5.50;99.90;;;;;;6138692;23;20177;-79
2021/05/01 02:08:49;;;;;;;38.58;25.67;;;5.50;99.90;;;;;;6142074;23;20180;-78
2021/05/01 02:11:16;;;;;;;39.17;25.63;;;5.50;99.90;;;;;;6143842;23;20291;-79
2021/05/01 02:13:43;;;;;;;36.33;25.42;;;5.50;99.90;;;;;;6145823;23;20192;-78
2021/05/01 02:16:10;;;;;;;41.05;27.52;;;5.40;99.90;;;;;;6143182;23;20482;-79
2021/05/01 02:18:36;;;;;;;41.58;26.35;;;5.40;99.90;;;;;;6138146;23;20211;-78
2021/05/01 02:21:04;;;;;;;44.03;26.55;;;5.40;99.90;;;;;;6142356;23;20201;-79
2021/05/01 02:23:30;;;;;;;38.40;26.08;;;5.40;99.90;;;;;;6141088;23;20620;-77
2021/05/01 02:25:56;;;;;;;36.38;24.50;;;5.40;99.90;;;;;;6141445;23;20184;-79
2021/05/01 02:28:23;;;;;;;41.78;26.45;;;5.30;99.90;;;;;;6147525;23;20184;-79
2021/05/01 02:30:50;;;;;;;39.90;24.48;;;5.20;99.90;;;;;;6141872;23;20204;-79
2021/05/01 02:33:17;;;;;;;37.97;24.42;;;5.20;99.90;;;;;;6137433;23;20184;-77
2021/05/01 02:35:43;;;;;;;40.55;25.80;;;5.20;99.90;;;;;;6137602;23;20184;-78
2021/05/01 02:38:10;;;;;;;45.10;28.10;;;5.20;99.90;;;;;;6139006;23;20177;-77
2021/05/01 02:40:37;;;;;;;44.60;27.55;;;5.20;99.90;;;;;;6130427;23;20699;-77
2021/05/01 02:43:05;;;;;;;41.05;27.33;;;5.20;99.90;;;;;;6128999;23;20259;-78
2021/05/01 02:45:32;;;;;;;36.88;24.10;;;5.20;99.90;;;;;;6129595;23;20184;-78
2021/05/01 02:47:59;;;;;;;39.75;26.20;;;5.10;99.90;;;;;;6134806;23;20184;-80
2021/05/01 02:50:26;;;;;;;40.78;25.83;;;5.10;99.90;;;;;;6150530;23;20201;-79
2021/05/01 02:52:52;;;;;;;39.70;26.63;;;5.00;99.90;;;;;;6150495;23;20188;-78
2021/05/01 02:55:19;;;;;;;40.97;25.38;;;5.10;99.90;;;;;;6148828;23;20185;-79
2021/05/01 02:57:45;;;;;;;39.22;26.05;;;5.00;99.90;;;;;;6145769;23;20215;-77
2021/05/01 03:00:16;;;;;;;41.05;25.65;;;5.10;99.90;;;;;;6147401;23;20205;-78
2021/05/01 03:02:42;;;;;;;42.22;25.90;;;5.00;99.90;;;;;;6148039;23;20165;-78
2021/05/01 03:05:11;;;;;;;40.55;26.30;;;5.00;99.90;;;;;;6148305;23;20191;-77
2021/05/01 03:07:38;;;;;;;44.17;27.83;;;5.00;99.90;;;;;;6148660;23;20164;-78
2021/05/01 03:10:06;;;;;;;40.20;25.70;;;5.00;99.90;;;;;;6149651;23;20188;-79
2021/05/01 03:12:33;;;;;;;39.20;24.95;;;4.90;99.90;;;;;;6149891;23;20184;-78
2021/05/01 03:14:59;;;;;;;42.72;26.63;;;4.90;99.90;;;;;;6147239;23;20184;-80
2021/05/01 03:17:25;;;;;;;42.28;26.67;;;4.90;99.90;;;;;;6144719;23;20181;-77
2021/05/01 03:19:52;;;;;;;44.28;26.85;;;4.90;99.90;;;;;;6145580;23;20207;-77
2021/05/01 03:22:19;;;;;;;39.05;24.83;;;4.90;99.90;;;;;;6143034;23;20181;-78
2021/05/01 03:24:46;;;;;;;35.70;25.15;;;4.90;99.90;;;;;;6130816;23;20236;-78
2021/05/01 03:27:12;;;;;;;36.30;26.73;;;4.80;99.90;;;;;;6128038;23;20195;-77
2021/05/01 03:29:39;;;;;;;36.20;24.48;;;4.70;99.90;;;;;;6128469;23;20176;-77
2021/05/01 03:32:06;;;;;;;39.60;25.25;;;4.70;99.90;;;;;;6129511;23;20226;-77
2021/05/01 03:34:32;;;;;;;43.00;25.83;;;4.70;99.90;;;;;;6129990;23;20191;-77
2021/05/01 03:36:59;;;;;;;42.50;26.52;;;4.70;99.90;;;;;;6127844;23;20187;-77
2021/05/01 03:39:26;;;;;;;37.90;24.55;;;4.70;99.90;;;;;;6128853;23;20184;-77
2021/05/01 03:41:53;;;;;;;36.17;24.20;;;4.70;99.90;;;;;;6137468;23;20208;-78
2021/05/01 03:44:19;;;;;;;40.47;25.95;;;4.70;99.90;;;;;;6140228;23;20658;-78
2021/05/01 03:46:45;;;;;;;39.85;24.95;;;4.60;99.90;;;;;;6138036;23;20215;-78
2021/05/01 03:49:12;;;;;;;35.35;24.13;;;4.60;99.90;;;;;;6128576;23;20520;-78
2021/05/01 03:51:38;;;;;;;41.65;23.95;;;4.60;99.90;;;;;;6128235;23;20255;-78
2021/05/01 03:54:05;;;;;;;36.67;23.90;;;4.60;99.90;;;;;;6128074;23;20191;-77
2021/05/01 03:56:33;;;;;;;37.80;24.30;;;4.60;99.90;;;;;;6126969;23;20227;-78
2021/05/01 03:58:59;;;;;;;39.30;26.70;;;4.60;99.90;;;;;;6127649;23;20653;-77
2021/05/01 04:01:26;;;;;;;43.55;25.73;;;4.60;99.90;;;;;;6128529;23;20209;-77
2021/05/01 04:03:53;;;;;;;44.13;28.13;;;4.60;99.90;;;;;;6128015;23;20255;-76
2021/05/01 04:06:20;;;;;;;41.15;26.35;;;4.60;99.90;;;;;;6128200;23;20188;-78
2021/05/01 04:08:46;;;;;;;40.72;26.45;;;4.60;99.90;;;;;;6129338;23;20521;-78
2021/05/01 04:11:13;;;;;;;46.28;27.20;;;4.50;99.90;;;;;;6130727;23;20208;-76
2021/05/01 04:13:46;;;;;;;47.15;28.73;;;4.50;99.90;;;;;;6135670;23;20184;-78
2021/05/01 04:16:13;;;;;;;40.28;26.60;;;4.50;99.90;;;;;;6144538;23;20169;-78
2021/05/01 04:18:39;;;;;;;43.33;26.52;;;4.50;99.90;;;;;;6144880;23;20184;-77
2021/05/01 04:21:06;;;;;;;40.17;27.00;;;4.60;99.90;;;;;;6141410;23;20280;-78
2021/05/01 04:23:32;;;;;;;40.05;24.52;;;4.60;99.90;;;;;;6142969;23;20185;-77
2021/05/01 04:25:59;;;;;;;39.78;25.00;;;4.60;99.90;;;;;;6135844;23;20208;-78
2021/05/01 04:28:25;;;;;;;39.08;25.60;;;4.60;99.90;;;;;;6142795;23;20185;-77
2021/05/01 04:30:53;;;;;;;42.35;25.92;;;4.60;99.90;;;;;;6140799;23;20742;-77
2021/05/01 04:33:19;;;;;;;41.80;24.73;;;4.70;99.90;;;;;;6129616;23;20590;-78
2021/05/01 04:35:45;;;;;;;46.38;29.52;;;4.70;99.90;;;;;;6130139;23;20212;-78
2021/05/01 04:38:12;;;;;;;43.65;29.48;;;4.70;99.90;;;;;;6134607;23;20189;-79
2021/05/01 04:40:38;;;;;;;47.40;29.52;;;4.70;99.90;;;;;;6137641;23;20212;-77
2021/05/01 04:43:06;;;;;;;44.55;28.70;;;4.60;99.90;;;;;;6131564;23;20509;-78
2021/05/01 04:45:33;;;;;;;44.95;28.27;;;4.70;99.90;;;;;;6130415;23;20181;-77
2021/05/01 04:48:00;;;;;;;42.78;27.45;;;4.70;99.90;;;;;;6130376;23;20192;-77
2021/05/01 04:50:27;;;;;;;41.70;28.17;;;4.70;99.90;;;;;;6134710;23;20208;-78
2021/05/01 04:52:53;;;;;;;53.30;30.70;;;4.80;99.90;;;;;;6141259;23;20196;-78
2021/05/01 04:55:19;;;;;;;53.75;30.40;;;4.80;99.90;;;;;;6143964;23;20195;-78
2021/05/01 04:57:47;;;;;;;54.20;28.70;;;5.00;99.90;;;;;;6145865;23;20396;-78
2021/05/01 05:00:15;;;;;;;46.30;26.13;;;5.20;99.90;;;;;;6146155;23;20259;-78
2021/05/01 05:02:43;;;;;;;49.22;29.33;;;5.30;99.90;;;;;;6144850;23;20181;-78
2021/05/01 05:05:12;;;;;;;40.95;26.92;;;5.80;99.90;;;;;;6144264;23;20191;-78
2021/05/01 05:07:38;;;;;;;36.58;25.60;;;6.30;99.90;;;;;;6144914;23;20164;-78
2021/05/01 05:10:07;;;;;;;35.65;24.20;;;6.70;99.90;;;;;;6142491;23;20211;-78
2021/05/01 05:12:33;;;;;;;25.50;18.67;;;7.10;99.90;;;;;;6142326;23;20247;-78
2021/05/01 05:15:00;;;;;;;25.63;19.15;;;7.10;99.30;;;;;;6146544;23;20184;-78
2021/05/01 05:17:26;;;;;;;23.58;17.67;;;7.10;96.80;;;;;;6146798;23;20223;-78
2021/05/01 05:19:53;;;;;;;20.40;16.90;;;7.20;95.00;;;;;;6145778;23;20212;-79
2021/05/01 05:22:20;;;;;;;22.65;17.63;;;7.40;87.80;;;;;;6143311;23;20263;-79
2021/05/01 05:24:47;;;;;;;21.67;16.38;;;7.00;85.80;;;;;;6139853;23;20188;-77
2021/05/01 05:27:13;;;;;;;19.63;15.32;;;7.10;83.20;;;;;;6131881;23;20196;-78
2021/05/01 05:29:41;;;;;;;19.98;15.50;;;7.50;82.70;;;;;;6141833;23;20191;-78
2021/05/01 05:32:07;;;;;;;19.85;15.18;;;8.00;75.50;;;;;;6144196;23;20216;-77
2021/05/01 05:34:34;;;;;;;19.77;14.85;;;8.20;71.40;;;;;;6146631;23;20184;-78
2021/05/01 05:37:00;;;;;;;16.17;13.60;;;8.30;72.60;;;;;;6146485;23;20172;-78
2021/05/01 05:39:28;;;;;;;18.23;13.48;;;8.70;66.10;;;;;;6146760;23;20195;-79
2021/05/01 05:41:54;;;;;;;15.68;13.30;;;8.60;67.30;;;;;;6149030;23;20218;-78
2021/05/01 05:44:21;;;;;;;18.58;14.25;;;8.60;67.30;;;;;;6152193;23;20184;-80
2021/05/01 05:46:48;;;;;;;19.77;13.75;;;8.60;66.70;;;;;;6136678;23;20188;-78
2021/05/01 05:49:14;;;;;;;15.63;13.07;;;9.00;64.10;;;;;;6133486;23;20670;-79
2021/05/01 05:51:41;;;;;;;17.52;13.77;;;8.40;66.50;;;;;;6130895;23;20226;-77
2021/05/01 05:54:07;;;;;;;16.02;13.93;;;8.70;66.10;;;;;;6130662;23;20307;-78
2021/05/01 05:56:35;;;;;;;17.90;14.73;;;9.10;66.70;;;;;;6129023;23;20518;-78
2021/05/01 05:59:02;;;;;;;14.15;11.55;;;9.60;62.80;;;;;;6129060;23;20512;-79
2021/05/01 06:01:31;;;;;;;16.55;12.63;;;9.70;58.60;;;;;;6138721;23;20201;-77
2021/05/01 06:03:59;;;;;;;14.05;12.32;;;10.00;57.90;;;;;;6142166;23;20260;-78
2021/05/01 06:06:29;;;;;;;18.45;13.63;;;9.10;61.70;;;;;;6132414;23;20218;-78
2021/05/01 06:08:56;;;;;;;14.57;12.43;;;9.30;61.20;;;;;;6147150;23;20169;-78
2021/05/01 06:11:23;;;;;;;13.60;12.02;;;9.40;60.60;;;;;;6144365;23;20208;-77
2021/05/01 06:13:51;;;;;;;14.13;12.55;;;9.90;59.60;;;;;;6130188;23;20235;-78
2021/05/01 06:16:20;;;;;;;14.13;12.48;;;10.60;56.60;;;;;;6126936;23;20259;-76
2021/05/01 06:18:48;;;;;;;14.88;12.60;;;10.00;56.10;;;;;;6127321;23;20551;-77
2021/05/01 06:21:15;;;;;;;14.80;12.30;;;10.20;55.90;;;;;;6126972;23;20207;-79
2021/05/01 06:23:42;;;;;;;15.05;11.75;;;10.40;55.20;;;;;;6126535;23;20223;-77
2021/05/01 06:26:08;;;;;;;12.68;11.35;;;10.60;54.50;;;;;;6126726;23;20191;-81
2021/05/01 06:28:36;;;;;;;13.48;11.30;;;11.10;51.20;;;;;;6126978;23;20586;-77
2021/05/01 06:31:05;;;;;;;16.80;12.57;;;10.40;54.40;;;;;;6127742;23;20622;-77
2021/05/01 06:33:35;;;;;;;14.68;12.90;;;9.60;59.30;;;;;;6129605;23;20188;-79
2021/05/01 06:36:02;;;;;;;15.98;13.57;;;9.70;61.00;;;;;;6127615;23;20181;-76
2021/05/01 06:38:30;;;;;;;15.50;13.45;;;9.80;60.10;;;;;;6127247;23;20518;-78
2021/05/01 06:41:00;;;;;;;15.60;12.93;;;9.30;61.90;;;;;;6128875;23;20841;-77
2021/05/01 06:43:35;;;;;;;14.35;12.85;;;9.30;62.90;;;;;;6126993;23;20187;-76
2021/05/01 06:46:04;;;;;;;14.63;12.07;;;9.60;61.00;;;;;;6129115;23;20540;-76
2021/05/01 06:48:34;;;;;;;15.57;12.48;;;9.40;63.50;;;;;;6128921;23;20185;-77
2021/05/01 06:51:02;;;;;;;16.17;13.60;;;9.30;63.50;;;;;;6131369;23;20200;-79
2021/05/01 06:53:30;;;;;;;15.05;13.20;;;9.20;63.40;;;;;;6128963;23;20204;-78
2021/05/01 06:56:00;;;;;;;16.13;13.25;;;9.30;62.20;;;;;;6129535;23;20193;-79
2021/05/01 06:58:29;;;;;;;14.90;12.40;;;9.30;63.60;;;;;;6129595;23;20168;-78
2021/05/01 07:00:56;;;;;;;15.43;12.40;;;9.50;60.20;;;;;;6129812;23;20508;-76
2021/05/01 07:03:25;;;;;;;17.10;14.05;;;9.40;62.70;;;;;;6131135;23;20514;-81
2021/05/01 07:05:52;;;;;;;17.60;13.15;;;9.30;62.20;;;;;;6130336;23;20193;-80
2021/05/01 07:08:19;;;;;;;15.60;13.45;;;9.20;63.40;;;;;;6142671;23;20177;-77
2021/05/01 07:10:45;;;;;;;13.25;11.45;;;9.30;61.70;;;;;;6151752;23;20189;-73
2021/05/01 07:13:14;;;;;;;14.93;12.55;;;9.40;63.60;;;;;;6136791;23;20197;-79
2021/05/01 07:15:41;;;;;;;16.35;13.00;;;9.40;61.80;;;;;;6132402;23;20180;-80
2021/05/01 07:18:10;;;;;;;13.25;11.60;;;9.80;61.70;;;;;;6131480;23;20176;-78
2021/05/01 07:20:38;;;;;;;15.15;12.60;;;10.20;58.90;;;;;;6128191;23;20683;-76
2021/05/01 07:23:04;;;;;;;13.07;11.60;;;10.50;56.10;;;;;;6129913;23;20169;-78
2021/05/01 07:25:31;;;;;;;13.65;12.02;;;10.00;58.60;;;;;;6130128;23;20572;-78
2021/05/01 07:28:02;;;;;;;14.48;11.90;;;10.50;57.50;;;;;;6133276;23;20251;-78
2021/05/01 07:30:31;;;;;;;16.33;11.93;;;10.80;54.00;;;;;;6136260;23;20204;-78
2021/05/01 07:33:06;;;;;;;15.27;11.82;;;10.90;50.10;;;;;;6134635;23;20200;-79
2021/05/01 07:35:34;;;;;;;13.55;11.95;;;11.10;50.30;;;;;;6135526;23;20177;-79
2021/05/01 07:38:07;;;;;;;13.65;12.13;;;11.10;50.20;;;;;;6136650;23;20245;-77
2021/05/01 07:40:34;;;;;;;14.88;12.10;;;10.50;49.70;;;;;;6129465;23;20209;-74
2021/05/01 07:43:02;;;;;;;16.55;13.70;;;10.40;51.80;;;;;;6096619;23;20493;-75
2021/05/01 07:45:29;;;;;;;15.23;12.40;;;10.70;50.50;;;;;;6097071;23;20264;-75
2021/05/01 07:47:57;;;;;;;13.75;12.27;;;11.10;50.10;;;;;;6097552;23;20264;-76
2021/05/01 07:50:24;;;;;;;15.63;13.10;;;10.70;49.90;;;;;;6104863;23;20204;-75
2021/05/01 07:52:52;;;;;;;17.85;14.98;;;10.70;49.90;;;;;;6132073;23;20208;-75
2021/05/01 07:55:20;;;;;;;17.42;14.38;;;10.10;52.10;;;;;;6131352;23;20187;-75
2021/05/01 07:57:47;;;;;;;17.75;14.75;;;10.00;53.40;;;;;;6140353;23;20274;-75
2021/05/01 08:00:15;;;;;;;17.95;15.65;;;9.70;55.20;;;;;;6137881;23;20232;-75
2021/05/01 08:02:41;;;;;;;20.70;15.63;;;9.90;55.30;;;;;;6129311;23;20212;-75
2021/05/01 08:05:09;;;;;;;20.25;15.75;;;10.20;54.80;;;;;;6128771;23;20165;-75
2021/05/01 08:07:36;;;;;;;17.73;15.48;;;10.70;52.50;;;;;;6133169;23;20390;-76
2021/05/01 08:10:04;;;;;;;15.52;13.40;;;11.10;51.00;;;;;;6128845;23;20236;-76
2021/05/01 08:12:32;;;;;;;18.33;14.23;;;11.50;49.70;;;;;;6129802;23;20236;-75
2021/05/01 08:15:00;;;;;;;15.23;13.43;;;11.60;47.00;;;;;;6129502;23;20562;-75
2021/05/01 08:17:27;;;;;;;16.90;14.55;;;11.00;49.00;;;;;;6125970;23;20255;-74
2021/05/01 08:19:53;;;;;;;16.48;14.35;;;10.90;50.10;;;;;;6124923;23;20212;-75
2021/05/01 08:22:20;;;;;;;15.73;13.32;;;11.10;48.80;;;;;;6126258;23;20263;-75
2021/05/01 08:24:47;;;;;;;15.80;13.88;;;11.20;48.80;;;;;;6128747;23;20220;-75
2021/05/01 08:27:13;;;;;;;16.25;14.18;;;11.00;47.20;;;;;;6126442;23;20196;-74
2021/05/01 08:29:41;;;;;;;16.52;14.57;;;11.40;47.50;;;;;;6127315;23;20259;-76
2021/05/01 08:32:07;;;;;;;16.15;14.45;;;11.90;45.60;;;;;;6126748;23;20281;-75
2021/05/01 08:34:34;;;;;;;20.13;14.63;;;11.70;46.00;;;;;;6127867;23;20643;-76
2021/05/01 08:37:00;;;;;;;16.00;14.30;;;11.80;47.00;;;;;;6125303;23;20216;-76
2021/05/01 08:39:27;;;;;;;15.60;13.98;;;11.90;45.10;;;;;;6124982;23;20184;-74
2021/05/01 08:41:53;;;;;;;18.60;15.10;;;12.20;44.20;;;;;;6122164;23;20219;-75
2021/05/01 08:44:20;;;;;;;18.58;15.10;;;12.00;45.50;;;;;;6125360;23;20215;-76
2021/05/01 08:46:48;;;;;;;18.92;14.85;;;12.40;43.50;;;;;;6123801;23;20235;-75
2021/05/01 08:49:14;;;;;;;19.70;15.30;;;11.60;46.30;;;;;;6124411;23;20259;-75
2021/05/01 08:51:43;;;;;;;19.77;15.85;;;11.80;46.20;;;;;;6125815;23;20689;-75
2021/05/01 08:54:11;;;;;;;19.58;15.77;;;12.10;45.00;;;;;;6125409;23;20196;-75
2021/05/01 08:56:38;;;;;;;19.95;16.55;;;12.00;45.80;;;;;;6124303;23;20578;-75
2021/05/01 08:59:04;;;;;;;20.45;16.40;;;11.60;48.10;;;;;;6125985;23;20699;-75
2021/05/01 09:01:31;;;;;;;19.67;16.92;;;11.60;48.00;;;;;;6126874;23;20204;-76
2021/05/01 09:04:01;;;;;;;22.05;17.25;;;11.20;50.10;;;;;;6127946;23;20577;-74
2021/05/01 09:06:27;;;;;;;20.25;16.67;;;11.40;48.40;;;;;;6126484;23;20737;-76
2021/05/01 09:08:55;;;;;;;21.63;18.33;;;11.50;47.80;;;;;;6127245;23;20180;-75
2021/05/01 09:11:36;;;;;;;21.80;17.33;;;11.50;48.00;;;;;;6128359;23;20678;-75
2021/05/01 09:14:19;;;;;;;21.65;17.50;;;11.60;47.60;;;;;;6129737;23;20165;-74
2021/05/01 09:16:57;;;;;;;22.73;17.52;;;11.80;47.00;;;;;;6134698;23;20168;-76
2021/05/01 09:19:35;;;;;;;22.63;18.30;;;12.20;46.40;;;;;;6128024;23;20526;-72
2021/05/01 09:22:06;;;;;;;22.83;18.85;;;12.20;47.40;;;;;;6147892;23;20200;-76
2021/05/01 09:24:33;;;;;;;18.02;15.70;;;12.50;44.50;;;;;;6145065;23;20168;-76
2021/05/01 09:27:00;;;;;;;19.30;16.13;;;12.90;42.20;;;;;;6143195;23;20185;-78
2021/05/01 09:29:31;;;;;;;21.58;17.67;;;13.10;42.40;;;;;;6145123;23;20188;-73
2021/05/01 09:32:00;;;;;;;21.25;18.65;;;13.20;43.00;;;;;;6145642;23;20208;-74
2021/05/01 09:34:44;;;;;;;23.50;18.27;;;12.90;42.20;;;;;;6146326;23;20208;-77
2021/05/01 09:37:11;;;;;;;25.42;18.50;;;12.80;42.60;;;;;;6140790;23;20177;-73
2021/05/01 09:39:47;;;;;;;22.52;19.23;;;11.80;46.30;;;;;;6136834;23;20184;-80
2021/05/01 09:42:16;;;;;;;24.17;18.08;;;12.10;45.20;;;;;;6133315;23;20204;-78
2021/05/01 09:44:42;;;;;;;22.83;19.30;;;12.50;44.00;;;;;;6126959;23;20191;-80
2021/05/01 09:47:13;;;;;;;23.55;19.63;;;12.80;43.70;;;;;;6126216;23;20184;-75
2021/05/01 09:49:41;;;;;;;23.52;19.70;;;12.90;42.20;;;;;;6126054;23;20180;-78
2021/05/01 09:52:11;;;;;;;22.55;19.50;;;12.50;44.30;;;;;;6125777;23;20223;-73
2021/05/01 09:54:39;;;;;;;21.83;18.88;;;12.80;44.00;;;;;;6129387;23;20199;-75
2021/05/01 09:57:07;;;;;;;24.63;19.98;;;12.40;45.90;;;;;;6139229;23;20665;-74
2021/05/01 09:59:35;;;;;;;26.08;20.35;;;12.20;46.50;;;;;;6125477;23;20224;-74
2021/05/01 10:02:02;;;;;;;27.20;20.90;;;11.70;46.40;;;;;;6125594;23;20200;-75
2021/05/01 10:04:29;;;;;;;24.20;19.50;;;12.20;46.40;;;;;;6124448;23;20219;-75
2021/05/01 10:06:59;;;;;;;25.65;19.38;;;12.70;44.40;;;;;;6125684;23;20373;-75
2021/05/01 10:09:29;;;;;;;22.85;19.05;;;12.90;43.40;;;;;;6125153;23;20647;-76
2021/05/01 10:12:07;;;;;;;30.70;21.50;;;13.20;42.50;;;;;;6125353;23;20247;-74
2021/05/01 10:14:36;;;;;;;25.77;21.17;;;13.30;42.60;;;;;;6126982;23;20657;-75
2021/05/01 10:17:03;;;;;;;28.95;21.88;;;12.40;44.90;;;;;;6129983;23;20236;-76
2021/05/01 10:19:54;;;;;;;25.58;21.70;;;11.90;46.90;;;;;;6127208;23;20272;-72
2021/05/01 10:22:41;;;;;;;27.65;21.17;;;12.30;46.50;;;;;;6104974;23;20169;-76
2021/05/01 10:25:09;;;;;;;26.10;20.80;;;12.60;45.80;;;;;;6129382;23;20165;-73
2021/05/01 10:27:44;;;;;;;27.02;22.80;;;12.90;43.40;;;;;;6127052;23;20191;-74
2021/05/01 10:30:27;;;;;;;26.30;20.63;;;12.40;45.60;;;;;;6129276;23;20191;-76
2021/05/01 10:32:57;;;;;;;24.92;20.75;;;13.30;42.60;;;;;;6129852;23;20200;-79
2021/05/01 10:35:24;;;;;;;22.15;18.90;;;13.80;40.60;;;;;;6131804;23;20546;-78
2021/05/01 10:37:56;;;;;;;22.00;18.33;;;13.40;40.50;;;;;;6129194;23;20218;-77
2021/05/01 10:40:23;;;;;;;22.08;19.65;;;13.60;40.00;;;;;;6130995;23;20208;-76
2021/05/01 10:43:09;;;;;;;22.63;18.77;;;14.00;39.30;;;;;;6136578;23;20165;-75
2021/05/01 10:45:35;;;;;;;23.05;19.85;;;13.10;41.80;;;;;;6149407;23;20176;-74
2021/05/01 10:48:09;;;;;;;23.52;18.58;;;13.50;41.00;;;;;;6148022;23;20173;-75
2021/05/01 10:50:36;;;;;;;22.52;18.33;;;12.90;42.20;;;;;;6143986;23;20214;-75
2021/05/01 10:53:06;;;;;;;22.30;18.00;;;12.90;41.10;;;;;;6131735;23;20227;-74
2021/05/01 10:55:47;;;;;;;23.15;19.55;;;12.80;42.10;;;;;;6139295;23;20184;-74
2021/05/01 10:58:27;;;;;;;22.95;18.17;;;12.90;41.10;;;;;;6149836;23;20180;-74
2021/05/01 11:00:54;;;;;;;25.60;21.08;;;12.90;42.20;;;;;;6151473;23;20224;-75
2021/05/01 11:03:23;;;;;;;21.73;19.38;;;13.50;41.10;;;;;;6143029;23;20180;-74
2021/05/01 11:05:52;;;;;;;23.88;19.30;;;14.00;39.50;;;;;;6132744;23;20184;-75
2021/05/01 11:08:32;;;;;;;23.83;19.58;;;13.90;38.30;;;;;;6148287;23;20253;-75
2021/05/01 11:10:59;;;;;;;23.60;20.42;;;13.60;38.80;;;;;;6130007;23;20573;-77
2021/05/01 11:13:27;;;;;;;23.50;18.90;;;13.10;40.90;;;;;;6127197;23;20196;-75
2021/05/01 11:15:57;;;;;;;23.95;19.33;;;13.50;39.80;;;;;;6125487;23;20223;-76
2021/05/01 11:18:26;;;;;;;21.45;19.02;;;13.50;39.70;;;;;;6124935;23;20201;-76
2021/05/01 11:20:57;;;;;;;22.30;19.27;;;13.80;38.30;;;;;;6125294;23;20200;-75
2021/05/01 11:23:26;;;;;;;22.55;19.65;;;13.10;40.50;;;;;;6126514;23;20202;-77
2021/05/01 11:25:54;;;;;;;22.33;19.05;;;13.40;39.30;;;;;;6127483;23;20255;-77
2021/05/01 11:28:24;;;;;;;21.95;17.77;;;13.50;39.20;;;;;;6126222;23;20215;-74
2021/05/01 11:30:54;;;;;;;20.45;18.25;;;13.80;39.20;;;;;;6127282;23;20212;-75
2021/05/01 11:33:23;;;;;;;21.17;18.63;;;14.30;37.40;;;;;;6128165;23;20220;-74
2021/05/01 11:35:51;;;;;;;21.65;18.30;;;14.70;35.50;;;;;;6125917;23;20270;-75
2021/05/01 11:38:25;;;;;;;20.48;17.85;;;14.40;36.30;;;;;;6125325;23;20216;-73
2021/05/01 11:40:54;;;;;;;23.30;18.88;;;14.50;35.60;;;;;;6126576;23;20208;-72
2021/05/01 11:43:27;;;;;;;21.30;17.85;;;14.20;36.00;;;;;;6126730;23;20181;-72
2021/05/01 11:46:09;;;;;;;20.48;18.08;;;13.70;37.50;;;;;;6126544;23;20256;-73
2021/05/01 11:48:45;;;;;;;22.08;18.55;;;13.70;37.70;;;;;;6127537;23;20563;-72
2021/05/01 11:51:16;;;;;;;20.75;18.50;;;13.80;37.30;;;;;;6126374;23;20212;-72
2021/05/01 11:53:46;;;;;;;24.52;18.30;;;13.90;37.90;;;;;;6128346;23;20603;-73
2021/05/01 11:56:29;;;;;;;20.23;17.92;;;13.70;38.30;;;;;;6128995;23;20216;-74
2021/05/01 11:59:12;;;;;;;21.70;17.65;;;14.30;36.80;;;;;;6128634;23;20200;-73
2021/05/01 12:01:49;;;;;;;22.98;17.70;;;14.00;37.00;;;;;;6128637;23;20256;-75
2021/05/01 12:04:18;;;;;;;21.10;18.40;;;14.30;36.40;;;;;;6127873;23;20173;-74
2021/05/01 12:06:52;;;;;;;20.20;17.75;;;13.60;38.40;;;;;;6127010;23;20271;-75
2021/05/01 12:09:25;;;;;;;22.00;17.67;;;13.80;38.10;;;;;;6127559;23;20191;-72
2021/05/01 12:11:52;;;;;;;22.08;16.95;;;14.40;36.60;;;;;;6125842;23;20737;-74
2021/05/01 12:14:19;;;;;;;19.67;17.08;;;14.30;37.60;;;;;;6128061;23;20212;-75
2021/05/01 12:16:46;;;;;;;19.30;17.17;;;14.80;33.90;;;;;;6126010;23;20180;-73
2021/05/01 12:19:23;;;;;;;20.75;17.30;;;14.80;33.90;;;;;;6126920;23;20189;-74
2021/05/01 12:21:50;;;;;;;17.65;15.75;;;14.90;34.00;;;;;;6126286;23;20227;-74
2021/05/01 12:24:27;;;;;;;19.57;17.30;;;15.20;34.30;;;;;;6125824;23;20184;-74
2021/05/01 12:26:54;;;;;;;19.03;16.47;;;14.60;33.80;;;;;;6125296;23;20726;-73
2021/05/01 12:29:35;;;;;;;18.30;16.50;;;15.00;34.10;;;;;;6125651;23;20467;-74
2021/05/01 12:32:05;;;;;;;18.10;16.20;;;14.50;33.60;;;;;;6127551;23;20726;-75
2021/05/01 12:34:57;;;;;;;20.98;17.42;;;13.70;35.30;;;;;;6127678;23;20508;-73
2021/05/01 12:37:26;;;;;;;19.40;16.50;;;13.30;36.10;;;;;;6126795;23;20235;-75
2021/05/01 12:40:00;;;;;;;20.95;17.40;;;13.30;36.60;;;;;;6125651;23;20195;-74